Pagrindinis puslapis
METAR-TAF:

METAR-TAF

Oro uostai :

Marathon, Florida, Jungtinės Amerikos Valstijos

platuma: 24-43-33N, ilguma: 081-02-52W, Aukštis: 2 m

Dabartinis oras

Ataskaita buvo paskelbta 37 minutes, ne 06:53 UTC
Ramus vėjas
Temperatūra 26°C
Drėgmė 94%
Slėgis 1016 hPa
Giedras dangus

METAR: KMTH 230653Z AUTO 00000KT CLR 26/25 A2999 RMK AO2 SLP154 T02610250 $

Laikas: 03:30 (07:30 UTC)

Prognozė

Ataskaita buvo paskelbta 2 valandos ir 1 minutes, ne 05:29 UTC
Prognozė galioja nuo 23 metu 06 UTC su 24 metu 06 UTC
Vėjas 5 kt nuo kintamojo kryptimis
Matomumas: 10 km
Mažai debesys ne aukštis 2000 ft
Išsisklaidę debesys ne aukštis 5000 ft
Su prošvaistėmis ne aukštis 10000 ft
Liūtis kaimynystėje
Nuo 23 metu 1200 UTC
Vėjas 7 kt iš Rytų
Matomumas: 10 km
Išsisklaidę debesys ne aukštis 2000 ft
Išsisklaidę debesys ne aukštis 5000 ft
Su prošvaistėmis ne aukštis 10000 ft
Liūtis kaimynystėje,

TAF: KMTH 230529Z 2306/2406 VRB05KT P6SM VCSH FEW020 SCT050 BKN100 FM231200 08007KT P6SM VCSH SCT020 SCT050 BKN100

Orai ataskaitas ir orų prognozės (METAR, TAF).

turimą stotys yra geltonos ir raudonos taškus žemėlapyje.

Perkelti pele per norėdami pamatyti stoties vardą.

Tada spustelėkite, norėdami matyti oro stebėjimo ir prognozės.

Norėdami pakeisti žemėlapį: spustelėkite ant žalios mygtukų su juodo kryžiaus žemyn,; žalią mygtuką su brūkšneliu, jei norite nutolinti; arba žalių rodyklių gretimoms žemėlapius.


METAR-TAF: